KCCR/CCR METAR and TAF weather

Enter ICAO airport designator
Station Type Date Time Source
KCCR METAR 2018/10/22 16:53 UTC NOAA

KCCR 221653Z 21005KT 10SM CLR 15/09 A2997 RMK AO2 SLP136 T01500094


Station Type Date Time Source
KCCR Decoded METAR 2018/10/22 16:53 UTC NOAA

CONCORD BUCHANAN FIELD, CA, United States (KCCR) 38-00N 122-03W 11M
Oct 22, 2018 - 12:53 PM EDT / 2018.10.22 1653 UTC
Wind: from the SSW (210 degrees) at 6 MPH (5 KT):0
Visibility: 10 mile(s):0
Sky conditions: clear
Temperature: 59.0 F (15.0 C)
Dew Point: 48.9 F (9.4 C)
Relative Humidity: 69%
Pressure (altimeter): 29.97 in. Hg (1014 hPa)
ob: KCCR 221653Z 21005KT 10SM CLR 15/09 A2997 RMK AO2 SLP136 T01500094
cycle: 17

Station Type Date Time Source
KCCR TAF 2016/02/08 18:39 UTC NOAA

TAF KCCR 081738Z 0818/0918 07006KT P6SM SKC
FM082000 06010KT P6SM SKC
FM090000 06005KT P6SM SKC
FM090600 VRB03KT P6SM SKC


Example: see airport list